Time;durP1;ratioP1;P1;durP2;ratioP2;P2;SDS_P1;SDS_P2;PMS_P1;PMS_P2;Temp;Humidity;BMP_temperature;BMP_pressure;BME280_temperature;BME280_humidity;BME280_pressure;Samples;Min_cycle;Max_cycle;Signal;HPM_P1;HPM_P2
2023/01/28 00:00:53;;;;;;;9.23;5.93;;;3.50;99.90;;;;;;5010267;28;20033;-91
2023/01/28 00:03:19;;;;;;;8.75;5.38;;;3.50;99.90;;;;;;5019667;28;20097;-91
2023/01/28 00:05:45;;;;;;;8.77;5.65;;;3.50;99.90;;;;;;5017806;28;20477;-91
2023/01/28 00:08:12;;;;;;;8.98;6.15;;;3.50;99.90;;;;;;5015879;28;20030;-90
2023/01/28 00:10:38;;;;;;;8.90;5.65;;;3.50;99.90;;;;;;5016293;28;20048;-91
2023/01/28 00:13:05;;;;;;;8.43;5.22;;;3.40;99.90;;;;;;5018268;28;20022;-91
2023/01/28 00:15:30;;;;;;;9.48;5.85;;;3.40;99.90;;;;;;5020117;28;20026;-91
2023/01/28 00:17:56;;;;;;;8.82;5.75;;;3.40;99.90;;;;;;5018200;28;20520;-91
2023/01/28 00:20:21;;;;;;;6.78;4.50;;;3.40;99.90;;;;;;5019543;28;20038;-89
2023/01/28 00:22:48;;;;;;;7.25;5.00;;;3.40;99.90;;;;;;5018455;28;20037;-90
2023/01/28 00:25:13;;;;;;;9.13;6.13;;;3.40;99.90;;;;;;5016022;28;20030;-91
2023/01/28 00:27:39;;;;;;;9.93;6.10;;;3.40;99.90;;;;;;5018417;28;20491;-92
2023/01/28 00:30:06;;;;;;;8.75;5.85;;;3.40;99.90;;;;;;5019538;28;20034;-90
2023/01/28 00:32:31;;;;;;;6.93;5.07;;;3.40;99.90;;;;;;5016981;28;20021;-91
2023/01/28 00:34:57;;;;;;;8.05;5.07;;;3.40;99.90;;;;;;5018856;28;20112;-90
2023/01/28 00:37:22;;;;;;;9.32;5.50;;;3.40;99.90;;;;;;5017950;28;20084;-91
2023/01/28 00:39:48;;;;;;;7.82;5.18;;;3.30;99.90;;;;;;5034910;28;20021;-90
2023/01/28 00:42:15;;;;;;;8.77;5.15;;;3.30;99.90;;;;;;5018930;28;20031;-90
2023/01/28 00:44:40;;;;;;;8.05;5.95;;;3.30;99.90;;;;;;5014649;28;20500;-90
2023/01/28 00:47:06;;;;;;;8.65;5.63;;;3.40;99.90;;;;;;5003034;28;20029;-91
2023/01/28 00:49:32;;;;;;;9.00;5.82;;;3.30;99.90;;;;;;5017057;28;20104;-91
2023/01/28 00:51:57;;;;;;;11.88;5.75;;;3.30;99.90;;;;;;5018126;28;20030;-91
2023/01/28 00:54:23;;;;;;;5.53;3.80;;;3.40;99.90;;;;;;5019243;28;20033;-91
2023/01/28 00:56:48;;;;;;;7.53;5.13;;;3.30;99.90;;;;;;5031135;28;20038;-91
2023/01/28 00:59:14;;;;;;;7.95;5.28;;;3.30;99.90;;;;;;5017683;28;20037;-91
2023/01/28 01:01:39;;;;;;;7.80;5.10;;;3.30;99.90;;;;;;5019091;28;20029;-91
2023/01/28 01:04:05;;;;;;;7.88;5.45;;;3.30;99.90;;;;;;5035784;28;20056;-90
2023/01/28 01:06:37;;;;;;;7.85;5.40;;;3.40;99.90;;;;;;5016688;28;20068;-91
2023/01/28 01:09:05;;;;;;;8.80;4.85;;;3.40;99.90;;;;;;5024355;28;20029;-90
2023/01/28 01:11:31;;;;;;;5.75;3.72;;;3.40;99.90;;;;;;5000094;28;20057;-90
2023/01/28 01:13:58;;;;;;;6.85;4.55;;;3.40;99.90;;;;;;5031449;28;20033;-91
2023/01/28 01:16:27;;;;;;;7.35;5.20;;;3.40;99.90;;;;;;5007971;28;20564;-90
2023/01/28 01:18:53;;;;;;;8.80;5.53;;;3.40;99.90;;;;;;5018330;28;20021;-91
2023/01/28 01:21:22;;;;;;;8.35;4.82;;;3.40;99.90;;;;;;5016717;28;20080;-91
2023/01/28 01:23:47;;;;;;;7.07;4.93;;;3.40;99.90;;;;;;5022190;28;20049;-92
2023/01/28 01:26:13;;;;;;;7.10;4.90;;;3.40;99.90;;;;;;5023110;28;20034;-90
2023/01/28 01:28:39;;;;;;;8.38;4.95;;;3.40;99.90;;;;;;5012533;28;20034;-90
2023/01/28 01:31:16;;;;;;;7.63;5.43;;;3.40;99.90;;;;;;5008520;28;20171;-91
2023/01/28 01:33:45;;;;;;;7.47;4.97;;;3.40;99.90;;;;;;5003761;28;20026;-91
2023/01/28 01:36:13;;;;;;;7.47;5.03;;;3.30;99.90;;;;;;5021494;28;20045;-90
2023/01/28 01:38:39;;;;;;;10.05;5.47;;;3.40;99.90;;;;;;5009155;28;20400;-90
2023/01/28 01:41:06;;;;;;;8.45;5.13;;;3.30;99.90;;;;;;5014657;28;20034;-90
2023/01/28 01:43:50;;;;;;;8.57;5.57;;;3.30;99.90;;;;;;5014647;28;20473;-90
2023/01/28 01:46:26;;;;;;;8.25;5.00;;;3.40;99.90;;;;;;5028694;28;20128;-90
2023/01/28 01:48:53;;;;;;;7.93;5.63;;;3.30;99.90;;;;;;5014295;28;20049;-90
2023/01/28 01:51:28;;;;;;;8.38;5.47;;;3.30;99.90;;;;;;5014177;28;20061;-90
2023/01/28 01:53:55;;;;;;;9.80;5.47;;;3.30;99.90;;;;;;5014729;28;20040;-90
2023/01/28 01:56:29;;;;;;;8.45;5.65;;;3.30;99.90;;;;;;5014775;28;20037;-90
2023/01/28 01:58:56;;;;;;;8.98;5.72;;;3.30;99.90;;;;;;5013738;28;20057;-90
2023/01/28 02:01:24;;;;;;;7.90;5.38;;;3.40;99.90;;;;;;5013852;28;20033;-90
2023/01/28 02:04:19;;;;;;;8.32;5.80;;;3.30;99.90;;;;;;5018743;28;20030;-90
2023/01/28 02:06:46;;;;;;;9.07;5.55;;;3.40;99.90;;;;;;5009685;28;20034;-89
2023/01/28 02:09:28;;;;;;;10.30;6.55;;;3.30;99.90;;;;;;5003574;28;20038;-90
2023/01/28 02:11:58;;;;;;;9.43;6.13;;;3.30;99.90;;;;;;5011553;28;20029;-90
2023/01/28 02:14:27;;;;;;;11.65;7.00;;;3.30;99.90;;;;;;5006769;28;20112;-90
2023/01/28 02:16:53;;;;;;;11.48;6.88;;;3.30;99.90;;;;;;5013892;28;20030;-90
2023/01/28 02:19:24;;;;;;;10.70;6.68;;;3.20;99.90;;;;;;4997605;28;20027;-90
2023/01/28 02:22:19;;;;;;;11.52;6.88;;;3.20;99.90;;;;;;5018303;28;20049;-90
2023/01/28 02:25:03;;;;;;;12.38;7.88;;;3.20;99.90;;;;;;5008511;28;20096;-90
2023/01/28 02:28:06;;;;;;;13.25;8.18;;;3.20;99.90;;;;;;5011995;28;20034;-90
2023/01/28 02:30:33;;;;;;;;;;;3.20;99.90;;;;;;4994585;28;20037;-90
2023/01/28 02:33:17;;;;;;;14.85;7.43;;;3.10;99.90;;;;;;5014109;28;19905;-90
2023/01/28 02:35:51;;;;;;;13.07;7.18;;;3.00;99.90;;;;;;5010477;28;20041;-90
2023/01/28 02:38:22;;;;;;;12.63;7.47;;;3.00;99.90;;;;;;4993599;28;20043;-89
2023/01/28 02:41:01;;;;;;;12.60;7.30;;;3.00;99.90;;;;;;4993316;28;20034;-90
2023/01/28 02:43:34;;;;;;;14.18;7.60;;;3.10;99.90;;;;;;5000515;28;20062;-90
2023/01/28 02:48:53;;;;;;;12.95;7.95;;;3.10;99.90;;;;;;4994400;28;20034;-91
2023/01/28 02:51:45;;;;;;;14.60;7.85;;;3.00;99.90;;;;;;4996377;28;20038;-90
2023/01/28 02:54:38;;;;;;;14.07;8.65;;;3.00;99.90;;;;;;4980946;28;20072;-90
2023/01/28 02:57:32;;;;;;;15.45;8.68;;;3.00;99.90;;;;;;4953605;28;20050;-90
2023/01/28 03:00:36;;;;;;;15.85;8.73;;;3.00;99.90;;;;;;5005617;28;20033;-91
2023/01/28 03:03:17;;;;;;;14.45;7.95;;;3.00;99.90;;;;;;4993655;28;20486;-91
2023/01/28 03:06:05;;;;;;;15.48;8.60;;;2.90;99.90;;;;;;4986982;28;20034;-90
2023/01/28 03:36:52;;;;;;;13.45;7.88;;;2.70;99.90;;;;;;5008303;28;20048;-91
2023/01/28 03:39:28;;;;;;;15.73;8.20;;;2.80;99.90;;;;;;5016160;28;20120;-91
2023/01/28 03:42:12;;;;;;;13.15;7.78;;;2.80;99.90;;;;;;5001988;28;20033;-90
2023/01/28 03:44:54;;;;;;;14.73;8.15;;;2.80;99.90;;;;;;5015752;28;20030;-91
2023/01/28 03:47:22;;;;;;;14.98;8.60;;;2.70;99.90;;;;;;5014427;28;20117;-89
2023/01/28 03:49:49;;;;;;;15.38;8.70;;;2.80;99.90;;;;;;5027028;28;20021;-90
2023/01/28 03:52:21;;;;;;;14.77;8.27;;;2.80;99.90;;;;;;5013491;28;20037;-91
2023/01/28 03:54:47;;;;;;;14.32;8.77;;;2.80;99.90;;;;;;5016226;28;20432;-91
2023/01/28 03:57:14;;;;;;;14.73;8.57;;;2.80;99.90;;;;;;5016880;28;20038;-91
2023/01/28 03:59:40;;;;;;;16.75;8.95;;;2.80;99.90;;;;;;5019382;28;20032;-90
2023/01/28 04:02:06;;;;;;;17.20;9.93;;;2.80;99.90;;;;;;5024078;28;20090;-91
2023/01/28 04:04:32;;;;;;;16.13;8.95;;;2.70;99.90;;;;;;5016378;28;20083;-90
2023/01/28 04:06:58;;;;;;;14.82;8.90;;;2.70;99.90;;;;;;5011731;28;20120;-91
2023/01/28 04:09:24;;;;;;;15.90;9.10;;;2.70;99.90;;;;;;5012593;28;20432;-91
2023/01/28 04:11:50;;;;;;;16.30;8.75;;;2.80;99.90;;;;;;5015681;28;20067;-90
2023/01/28 04:14:17;;;;;;;16.55;8.75;;;2.70;99.90;;;;;;5016445;28;20095;-91
2023/01/28 04:16:43;;;;;;;16.88;9.00;;;2.70;99.90;;;;;;5015800;28;20072;-90
2023/01/28 04:19:11;;;;;;;15.35;8.88;;;2.70;99.90;;;;;;5017333;28;20034;-92
2023/01/28 04:21:36;;;;;;;15.55;9.05;;;2.70;99.90;;;;;;5013835;28;20043;-90
2023/01/28 04:24:02;;;;;;;16.20;9.40;;;2.70;99.90;;;;;;5018607;28;20116;-90
2023/01/28 04:26:27;;;;;;;16.40;9.65;;;2.60;99.90;;;;;;5016232;28;20394;-90
2023/01/28 04:28:53;;;;;;;13.90;8.63;;;2.70;99.90;;;;;;5031645;28;20025;-90
2023/01/28 04:31:19;;;;;;;15.20;9.23;;;2.70;99.90;;;;;;5026603;28;20035;-90
2023/01/28 04:33:44;;;;;;;15.65;8.43;;;2.70;99.90;;;;;;5018524;28;20071;-91
2023/01/28 04:36:10;;;;;;;14.00;8.85;;;2.60;99.90;;;;;;5006384;28;20088;-91
2023/01/28 04:38:35;;;;;;;14.55;8.65;;;2.60;99.90;;;;;;5014198;28;20029;-90
2023/01/28 04:41:01;;;;;;;14.65;8.32;;;2.60;99.90;;;;;;5015576;28;20026;-90
2023/01/28 04:43:26;;;;;;;15.50;7.93;;;2.60;99.90;;;;;;5023016;28;20163;-90
2023/01/28 04:45:52;;;;;;;13.43;8.02;;;2.60;99.90;;;;;;5021218;28;20040;-90
2023/01/28 04:48:18;;;;;;;12.02;7.70;;;2.60;99.90;;;;;;5032815;28;20401;-90
2023/01/28 04:50:44;;;;;;;15.05;7.90;;;2.60;99.90;;;;;;5008974;28;20029;-91
2023/01/28 04:53:10;;;;;;;14.27;7.75;;;2.60;99.90;;;;;;5018486;28;20028;-91
2023/01/28 04:55:36;;;;;;;11.70;7.00;;;2.60;99.90;;;;;;5016163;28;20032;-91
2023/01/28 04:58:01;;;;;;;12.32;7.28;;;2.60;99.90;;;;;;5016118;28;20128;-90
2023/01/28 05:00:27;;;;;;;13.07;8.13;;;2.70;99.90;;;;;;5015505;28;20446;-91
2023/01/28 05:02:52;;;;;;;12.18;7.32;;;2.70;99.90;;;;;;5018441;28;20025;-90
2023/01/28 05:05:18;;;;;;;14.77;7.97;;;2.60;99.90;;;;;;5009457;28;20060;-91
2023/01/28 05:07:49;;;;;;;14.60;8.63;;;2.60;99.90;;;;;;5035190;28;20014;-91
2023/01/28 05:10:15;;;;;;;14.13;8.35;;;2.60;99.90;;;;;;5016912;28;20029;-91
2023/01/28 05:12:43;;;;;;;12.70;7.40;;;2.60;99.90;;;;;;5016070;28;20090;-90
2023/01/28 05:15:09;;;;;;;12.40;7.30;;;2.60;99.90;;;;;;5014481;28;20500;-90
2023/01/28 05:17:34;;;;;;;13.82;8.60;;;2.60;99.90;;;;;;5010834;28;20037;-91
2023/01/28 05:20:00;;;;;;;14.90;8.30;;;2.60;99.90;;;;;;5017703;28;20022;-90
2023/01/28 05:22:25;;;;;;;13.98;7.97;;;2.60;99.90;;;;;;5017649;28;20026;-90
2023/01/28 05:24:51;;;;;;;13.93;7.63;;;2.50;99.90;;;;;;5017329;28;20116;-90
2023/01/28 05:27:16;;;;;;;13.80;7.40;;;2.60;99.90;;;;;;5017759;28;20052;-90
2023/01/28 05:29:42;;;;;;;12.20;7.70;;;2.60;99.90;;;;;;5017054;28;20045;-90
2023/01/28 05:32:08;;;;;;;13.63;7.80;;;2.50;99.90;;;;;;5017957;28;20033;-90
2023/01/28 05:34:34;;;;;;;13.98;8.43;;;2.50;99.90;;;;;;5017075;28;20021;-90
2023/01/28 05:36:59;;;;;;;12.60;7.45;;;2.50;99.90;;;;;;5013023;28;20085;-89
2023/01/28 05:39:26;;;;;;;12.30;6.78;;;2.50;99.90;;;;;;5009275;28;20121;-89
2023/01/28 05:41:51;;;;;;;12.00;7.40;;;2.50;99.90;;;;;;5010442;28;20021;-90
2023/01/28 05:44:17;;;;;;;12.45;7.18;;;2.50;99.90;;;;;;5017218;28;20489;-89
2023/01/28 05:46:45;;;;;;;12.68;7.07;;;2.50;99.90;;;;;;5013957;28;20022;-90
2023/01/28 05:49:12;;;;;;;12.32;6.97;;;2.50;99.90;;;;;;5013919;28;20034;-89
2023/01/28 05:51:38;;;;;;;13.63;7.78;;;2.50;99.90;;;;;;5014739;28;20033;-91
2023/01/28 05:54:05;;;;;;;14.52;7.47;;;2.50;99.90;;;;;;5003968;28;20026;-90
2023/01/28 05:56:31;;;;;;;13.32;7.57;;;2.50;99.90;;;;;;5013476;28;20140;-90
2023/01/28 05:58:56;;;;;;;14.52;7.82;;;2.50;99.90;;;;;;5014366;28;20081;-89
2023/01/28 06:01:22;;;;;;;13.35;8.10;;;2.50;99.90;;;;;;5013975;28;20544;-89
2023/01/28 06:03:47;;;;;;;12.93;7.00;;;2.50;99.90;;;;;;5013510;28;20119;-90
2023/01/28 06:06:13;;;;;;;12.10;6.78;;;2.40;99.90;;;;;;5013157;28;20405;-89
2023/01/28 06:08:40;;;;;;;11.52;7.38;;;2.50;99.90;;;;;;5015536;28;20378;-90
2023/01/28 06:11:06;;;;;;;12.48;7.40;;;2.50;99.90;;;;;;5011125;28;20030;-90
2023/01/28 06:13:31;;;;;;;13.20;7.70;;;2.40;99.90;;;;;;5013305;28;20136;-89
2023/01/28 06:15:57;;;;;;;13.65;7.60;;;2.50;99.90;;;;;;5030139;28;20076;-90
2023/01/28 06:18:22;;;;;;;13.60;7.25;;;2.40;99.90;;;;;;5012885;28;20390;-90
2023/01/28 06:20:48;;;;;;;13.23;7.63;;;2.50;99.90;;;;;;5013938;28;20026;-90
2023/01/28 06:23:14;;;;;;;14.27;8.18;;;2.40;99.90;;;;;;5014009;28;20029;-90
2023/01/28 06:25:40;;;;;;;13.43;7.78;;;2.40;99.90;;;;;;5002095;28;20033;-90
2023/01/28 06:28:05;;;;;;;13.32;7.68;;;2.40;99.90;;;;;;5011426;28;20034;-90
2023/01/28 06:30:31;;;;;;;13.80;8.20;;;2.40;99.90;;;;;;5002686;28;20038;-90
2023/01/28 06:32:57;;;;;;;13.57;7.97;;;2.40;99.90;;;;;;5005582;28;20084;-90
2023/01/28 06:35:22;;;;;;;11.88;6.60;;;2.40;99.90;;;;;;5009854;28;20041;-89
2023/01/28 06:37:48;;;;;;;13.02;7.43;;;2.40;99.90;;;;;;5011637;28;20044;-90
2023/01/28 06:40:13;;;;;;;12.70;7.35;;;2.40;99.90;;;;;;5019479;28;20064;-89
2023/01/28 06:42:39;;;;;;;11.82;6.93;;;2.40;99.90;;;;;;5007951;28;20006;-91
2023/01/28 06:45:05;;;;;;;12.77;7.15;;;2.40;99.90;;;;;;5010772;28;20156;-89
2023/01/28 06:47:30;;;;;;;12.40;7.40;;;2.40;99.90;;;;;;5012252;28;20464;-90
2023/01/28 06:49:56;;;;;;;14.05;7.95;;;2.40;99.90;;;;;;5008738;28;20037;-90
2023/01/28 06:52:21;;;;;;;14.80;8.07;;;2.40;99.90;;;;;;5020042;28;20037;-90
2023/01/28 06:54:47;;;;;;;12.45;7.68;;;2.40;99.90;;;;;;5015392;28;20022;-91
2023/01/28 06:57:12;;;;;;;12.95;7.50;;;2.40;99.90;;;;;;5013507;28;20532;-92
2023/01/28 06:59:38;;;;;;;13.57;7.60;;;2.40;99.90;;;;;;5005931;28;20026;-92
2023/01/28 07:02:03;;;;;;;15.13;7.97;;;2.40;99.90;;;;;;5009669;28;20037;-92
2023/01/28 07:04:30;;;;;;;13.05;7.63;;;2.40;99.90;;;;;;5016403;28;20064;-92
2023/01/28 07:06:56;;;;;;;14.13;8.32;;;2.40;99.90;;;;;;5015452;28;20038;-92
2023/01/28 07:09:21;;;;;;;15.13;8.07;;;2.30;99.90;;;;;;5014122;28;20022;-91
2023/01/28 07:11:47;;;;;;;13.07;7.43;;;2.40;99.90;;;;;;5010607;28;20095;-92
2023/01/28 07:14:12;;;;;;;13.25;7.65;;;2.30;99.90;;;;;;5015298;28;20485;-91
2023/01/28 07:16:38;;;;;;;12.43;7.40;;;2.30;99.90;;;;;;5010374;28;20038;-92
2023/01/28 07:19:03;;;;;;;16.10;8.02;;;2.40;99.90;;;;;;5015313;28;20018;-91
2023/01/28 07:21:29;;;;;;;16.10;8.05;;;2.30;99.90;;;;;;5022268;28;20026;-91
2023/01/28 07:23:54;;;;;;;13.77;7.78;;;2.40;99.90;;;;;;5013436;28;20018;-91
2023/01/28 07:26:20;;;;;;;16.23;8.23;;;2.30;99.90;;;;;;5010678;28;20026;-92
2023/01/28 07:28:46;;;;;;;13.32;7.70;;;2.30;99.90;;;;;;5013493;28;20025;-92
2023/01/28 07:31:11;;;;;;;13.90;7.72;;;2.30;99.90;;;;;;5013897;28;20030;-90
2023/01/28 07:33:37;;;;;;;14.65;8.07;;;2.30;99.90;;;;;;5012235;28;20553;-92
2023/01/28 07:36:03;;;;;;;15.73;8.73;;;2.30;99.90;;;;;;5006200;28;20033;-91
2023/01/28 07:38:28;;;;;;;12.50;7.38;;;2.30;99.90;;;;;;5013093;28;20387;-92
2023/01/28 07:40:54;;;;;;;16.83;9.13;;;2.30;99.90;;;;;;5012341;28;20500;-92
2023/01/28 07:43:19;;;;;;;14.98;8.32;;;2.30;99.90;;;;;;5012461;28;20567;-92
2023/01/28 07:45:45;;;;;;;15.45;9.05;;;2.30;99.90;;;;;;5012320;28;20116;-92
2023/01/28 07:48:12;;;;;;;15.65;8.55;;;2.30;99.90;;;;;;5011750;28;20079;-91
2023/01/28 07:50:39;;;;;;;14.63;8.15;;;2.30;99.90;;;;;;5030463;28;20620;-91
2023/01/28 07:53:07;;;;;;;14.95;8.15;;;2.30;99.90;;;;;;5029864;28;20025;-91
2023/01/28 07:55:34;;;;;;;16.65;8.80;;;2.30;99.90;;;;;;5013098;28;20034;-91
2023/01/28 07:58:01;;;;;;;16.35;8.77;;;2.30;99.90;;;;;;5016380;28;20042;-91
2023/01/28 08:00:29;;;;;;;17.27;9.55;;;2.30;99.90;;;;;;5014002;28;20070;-92
2023/01/28 08:02:56;;;;;;;14.82;8.60;;;2.30;99.90;;;;;;5015383;28;20026;-92
2023/01/28 08:05:23;;;;;;;15.75;8.93;;;2.30;99.90;;;;;;5016545;28;20025;-92
2023/01/28 08:07:49;;;;;;;14.60;8.13;;;2.40;99.90;;;;;;5034070;28;20030;-92
2023/01/28 08:10:16;;;;;;;16.35;8.43;;;2.40;99.90;;;;;;5019807;28;20228;-92
2023/01/28 08:12:54;;;;;;;15.40;9.00;;;2.30;99.90;;;;;;5019558;28;20037;-92
2023/01/28 08:15:20;;;;;;;16.70;8.98;;;2.40;99.90;;;;;;5018671;28;20022;-91
2023/01/28 08:17:46;;;;;;;15.23;8.60;;;2.40;99.90;;;;;;5016773;28;20042;-92
2023/01/28 08:20:12;;;;;;;16.98;8.90;;;2.40;99.90;;;;;;5034764;28;20033;-92
2023/01/28 08:22:38;;;;;;;15.93;9.07;;;2.40;99.90;;;;;;5017630;28;20025;-91
2023/01/28 08:25:03;;;;;;;16.75;9.40;;;2.40;99.90;;;;;;5016912;28;20118;-92
2023/01/28 08:27:29;;;;;;;14.88;8.65;;;2.40;99.90;;;;;;5021743;28;20026;-90
2023/01/28 08:29:54;;;;;;;18.30;9.63;;;2.40;99.90;;;;;;5018101;28;20019;-92
2023/01/28 08:32:20;;;;;;;18.60;10.32;;;2.40;99.90;;;;;;5016637;28;20244;-89
2023/01/28 08:34:46;;;;;;;14.43;7.88;;;2.40;99.90;;;;;;5011254;28;20089;-92
2023/01/28 08:37:11;;;;;;;18.08;10.07;;;2.40;99.90;;;;;;5019009;28;20425;-93
2023/01/28 08:39:37;;;;;;;16.85;9.20;;;2.40;99.90;;;;;;5020002;28;20521;-91
2023/01/28 08:42:05;;;;;;;17.20;9.57;;;2.40;99.90;;;;;;5018491;28;20033;-91
2023/01/28 08:44:30;;;;;;;14.35;7.78;;;2.40;99.90;;;;;;5018402;28;20025;-91
2023/01/28 08:46:56;;;;;;;13.77;7.78;;;2.40;99.90;;;;;;5019698;28;20037;-90
2023/01/28 08:49:22;;;;;;;16.45;9.73;;;2.40;99.90;;;;;;5018792;28;20045;-91
2023/01/28 08:51:48;;;;;;;16.85;8.60;;;2.40;99.90;;;;;;5018215;28;20032;-91
2023/01/28 08:54:13;;;;;;;15.05;8.25;;;2.40;99.90;;;;;;5018166;28;20018;-90
2023/01/28 08:56:41;;;;;;;16.70;10.10;;;2.40;99.90;;;;;;5017901;28;20084;-90
2023/01/28 08:59:07;;;;;;;15.75;8.70;;;2.40;99.90;;;;;;5018026;28;20102;-90
2023/01/28 09:01:33;;;;;;;15.93;9.00;;;2.40;99.90;;;;;;5033703;28;20057;-90
2023/01/28 09:03:58;;;;;;;17.33;10.05;;;2.40;99.90;;;;;;5033628;28;20087;-90
2023/01/28 09:06:24;;;;;;;15.10;8.63;;;2.40;99.90;;;;;;5020340;28;20417;-91
2023/01/28 09:08:49;;;;;;;16.77;9.50;;;2.40;99.90;;;;;;5033552;28;20496;-91
2023/01/28 09:11:15;;;;;;;14.20;8.13;;;2.40;99.90;;;;;;5038541;28;20022;-90
2023/01/28 09:13:40;;;;;;;15.82;9.60;;;2.40;99.90;;;;;;5028369;28;20053;-91
2023/01/28 09:16:06;;;;;;;15.00;8.98;;;2.40;99.90;;;;;;5017205;28;20030;-90
2023/01/28 09:18:32;;;;;;;17.20;10.63;;;2.30;99.90;;;;;;5017356;28;20116;-91
2023/01/28 09:20:57;;;;;;;13.65;8.35;;;2.30;99.90;;;;;;5018227;28;20057;-91
2023/01/28 09:23:23;;;;;;;16.20;9.55;;;2.30;99.90;;;;;;5017796;28;20036;-91
2023/01/28 09:25:48;;;;;;;12.75;8.00;;;2.30;99.90;;;;;;5018180;28;20090;-90
2023/01/28 09:28:14;;;;;;;12.85;7.38;;;2.30;99.90;;;;;;5018195;28;20438;-90
2023/01/28 09:30:39;;;;;;;14.20;8.60;;;2.30;99.90;;;;;;5013767;28;20375;-90
2023/01/28 09:33:06;;;;;;;13.27;8.07;;;2.30;99.90;;;;;;5014462;28;20038;-90
2023/01/28 09:35:32;;;;;;;12.60;8.02;;;2.30;99.90;;;;;;5017663;28;20029;-90
2023/01/28 09:37:59;;;;;;;14.50;8.82;;;2.40;99.90;;;;;;5017028;28;20137;-90
2023/01/28 09:40:41;;;;;;;15.60;8.25;;;2.40;99.90;;;;;;5017632;28;20018;-90
2023/01/28 09:43:48;;;;;;;14.27;8.60;;;2.50;99.90;;;;;;5016647;28;20026;-90
2023/01/28 09:46:17;;;;;;;16.75;8.60;;;2.50;99.90;;;;;;5016314;28;20034;-92
2023/01/28 09:48:49;;;;;;;14.00;7.97;;;2.50;99.90;;;;;;5015898;28;20022;-90
2023/01/28 09:51:40;;;;;;;12.73;7.50;;;2.50;99.90;;;;;;5027857;28;20030;-91
2023/01/28 09:54:39;;;;;;;14.43;8.30;;;2.50;99.90;;;;;;5019176;28;20343;-90
2023/01/28 09:57:10;;;;;;;12.00;7.68;;;2.50;99.90;;;;;;5017316;28;20085;-90
2023/01/28 09:59:36;;;;;;;12.00;7.28;;;2.50;99.90;;;;;;5017050;28;20397;-91
2023/01/28 10:02:31;;;;;;;14.73;8.38;;;2.60;99.90;;;;;;5016324;28;20067;-90
2023/01/28 10:05:02;;;;;;;15.00;8.48;;;2.60;99.90;;;;;;4971137;28;20042;-90
2023/01/28 10:07:36;;;;;;;12.52;7.55;;;2.60;99.90;;;;;;5012992;28;20037;-90
2023/01/28 10:10:20;;;;;;;13.45;8.10;;;2.60;99.90;;;;;;5031457;28;20405;-91
2023/01/28 10:13:14;;;;;;;11.13;6.88;;;2.70;99.90;;;;;;5016136;28;20486;-92
2023/01/28 10:16:05;;;;;;;13.00;7.75;;;2.80;99.90;;;;;;5016636;28;20526;-91
2023/01/28 10:18:55;;;;;;;13.23;8.48;;;2.80;99.90;;;;;;5032634;28;20045;-90
2023/01/28 10:21:30;;;;;;;12.85;8.00;;;2.90;99.90;;;;;;5015716;28;20026;-90
2023/01/28 10:24:02;;;;;;;12.85;7.95;;;3.00;99.90;;;;;;5017577;28;20033;-90
2023/01/28 10:26:39;;;;;;;16.70;8.65;;;3.10;99.90;;;;;;5015165;28;20041;-90
2023/01/28 10:29:30;;;;;;;13.68;8.85;;;3.20;99.90;;;;;;5016142;28;20022;-90
2023/01/28 10:32:05;;;;;;;12.30;8.27;;;3.30;99.90;;;;;;5016803;28;20077;-90
2023/01/28 10:34:30;;;;;;;13.25;7.25;;;3.40;99.90;;;;;;5016435;28;20018;-91
2023/01/28 10:36:57;;;;;;;12.93;7.70;;;3.40;99.90;;;;;;5032456;28;20072;-91
2023/01/28 10:39:25;;;;;;;11.90;7.45;;;3.40;99.90;;;;;;5016109;28;20574;-89
2023/01/28 10:41:50;;;;;;;11.02;7.32;;;3.50;99.90;;;;;;5018787;28;20420;-90
2023/01/28 10:44:35;;;;;;;13.05;7.15;;;3.60;99.90;;;;;;5016088;28;20018;-90
2023/01/28 10:47:28;;;;;;;10.98;6.70;;;3.70;99.90;;;;;;5015278;28;20041;-91
2023/01/28 10:49:58;;;;;;;11.15;6.82;;;3.60;99.90;;;;;;5007429;28;20514;-91
2023/01/28 10:52:24;;;;;;;9.77;6.75;;;3.60;99.90;;;;;;5013027;28;20030;-90
2023/01/28 10:54:59;;;;;;;10.07;6.47;;;3.60;99.90;;;;;;5013421;28;20029;-90
2023/01/28 10:57:25;;;;;;;10.30;6.43;;;3.70;99.90;;;;;;5013590;28;20124;-90
2023/01/28 10:59:50;;;;;;;10.23;6.40;;;3.70;99.90;;;;;;5032714;28;20486;-89
2023/01/28 11:02:31;;;;;;;9.93;5.72;;;3.80;99.90;;;;;;5015109;28;20041;-91
2023/01/28 11:05:20;;;;;;;8.20;5.72;;;3.80;99.90;;;;;;5016108;28;20030;-90
2023/01/28 11:07:49;;;;;;;9.32;6.15;;;3.80;99.90;;;;;;5015479;28;20117;-91
2023/01/28 11:10:32;;;;;;;8.27;4.90;;;3.80;99.90;;;;;;5016173;28;20026;-91
2023/01/28 11:12:59;;;;;;;8.93;6.10;;;3.90;99.90;;;;;;5025195;28;20030;-89
2023/01/28 11:15:25;;;;;;;10.20;5.43;;;3.80;99.90;;;;;;5012891;28;20046;-90
2023/01/28 11:18:04;;;;;;;9.07;5.53;;;3.90;99.90;;;;;;5012945;28;20038;-90
2023/01/28 11:20:36;;;;;;;7.85;5.03;;;3.80;99.90;;;;;;5016726;28;20025;-91
2023/01/28 11:23:02;;;;;;;8.25;4.70;;;3.80;99.90;;;;;;5015300;28;20061;-90
2023/01/28 11:25:33;;;;;;;7.50;4.53;;;3.60;99.90;;;;;;5016166;28;20076;-91
2023/01/28 11:28:04;;;;;;;6.85;4.15;;;3.50;99.90;;;;;;5016242;28;20058;-91
2023/01/28 11:30:39;;;;;;;7.22;4.60;;;3.50;99.90;;;;;;5015982;28;20026;-90
2023/01/28 11:33:16;;;;;;;15.20;6.75;;;3.60;99.90;;;;;;5018927;28;20451;-90
2023/01/28 11:35:51;;;;;;;34.20;12.73;;;3.60;99.90;;;;;;5018692;28;20029;-90
2023/01/28 11:38:20;;;;;;;89.72;34.92;;;3.60;99.90;;;;;;5000358;28;20056;-92
2023/01/28 11:40:51;;;;;;;25.02;12.43;;;3.70;99.90;;;;;;5017441;28;20064;-89
2023/01/28 11:43:16;;;;;;;16.02;9.00;;;3.80;99.90;;;;;;5021001;28;20033;-90
2023/01/28 11:45:46;;;;;;;11.55;6.78;;;3.80;99.90;;;;;;5038143;28;20037;-90
2023/01/28 11:48:21;;;;;;;9.57;6.25;;;3.80;99.90;;;;;;5028262;28;20125;-89
2023/01/28 11:51:01;;;;;;;9.68;5.15;;;3.90;99.90;;;;;;5017715;28;20097;-90
2023/01/28 11:53:50;;;;;;;9.18;5.20;;;3.90;99.90;;;;;;5018313;28;20026;-89
2023/01/28 11:56:52;;;;;;;8.07;3.80;;;3.90;99.90;;;;;;5051612;28;20030;-90
2023/01/28 11:59:36;;;;;;;6.88;4.28;;;4.00;99.90;;;;;;4991728;28;20061;-90
2023/01/28 12:02:28;;;;;;;6.70;3.55;;;4.00;99.90;;;;;;5026816;28;21773;-90
2023/01/28 12:05:20;;;;;;;7.55;4.00;;;4.10;99.90;;;;;;5035094;28;20026;-89
2023/01/28 12:07:57;;;;;;;7.43;4.15;;;4.20;99.90;;;;;;5019023;28;20065;-90
2023/01/28 12:10:52;;;;;;;8.38;4.15;;;4.20;99.90;;;;;;5018912;28;20022;-90
2023/01/28 12:13:46;;;;;;;8.02;4.40;;;4.30;99.90;;;;;;5018767;28;20029;-89
2023/01/28 12:16:38;;;;;;;9.25;4.43;;;4.30;99.90;;;;;;5017920;28;20037;-90
2023/01/28 12:19:37;;;;;;;7.35;4.30;;;4.50;99.90;;;;;;5019647;28;20547;-90
2023/01/28 12:22:18;;;;;;;7.78;4.00;;;4.60;99.90;;;;;;5014873;28;20141;-90
2023/01/28 12:25:28;;;;;;;7.78;4.15;;;4.60;99.90;;;;;;5019275;28;20028;-90
2023/01/28 12:28:17;;;;;;;7.75;4.68;;;4.70;99.90;;;;;;5013450;28;20109;-91
2023/01/28 12:31:06;;;;;;;7.30;5.13;;;4.70;99.90;;;;;;5018626;28;20042;-91
2023/01/28 12:33:56;;;;;;;7.35;4.85;;;4.80;99.90;;;;;;4969527;28;20068;-91
2023/01/28 12:36:57;;;;;;;7.03;4.07;;;4.80;99.90;;;;;;5019781;28;20053;-91
2023/01/28 12:39:34;;;;;;;7.25;4.15;;;4.70;99.90;;;;;;5023960;28;20029;-89
2023/01/28 12:42:12;;;;;;;6.25;4.30;;;4.70;99.90;;;;;;5023925;28;20385;-91
2023/01/28 12:44:45;;;;;;;7.55;3.90;;;4.60;99.90;;;;;;5020908;28;20028;-92
2023/01/28 12:47:19;;;;;;;12.98;7.53;;;4.60;99.90;;;;;;5023161;28;20374;-91
2023/01/28 12:49:49;;;;;;;8.55;5.25;;;4.70;99.90;;;;;;5023474;28;20022;-90
2023/01/28 12:52:29;;;;;;;8.95;4.72;;;4.80;99.90;;;;;;5022911;28;20032;-90
2023/01/28 12:55:11;;;;;;;8.13;4.35;;;4.90;99.90;;;;;;5015065;28;20045;-90
2023/01/28 12:57:37;;;;;;;8.90;4.68;;;4.90;99.90;;;;;;5023522;28;20485;-90
2023/01/28 13:00:21;;;;;;;7.60;4.38;;;4.80;99.90;;;;;;5022227;28;20124;-91
2023/01/28 13:03:27;;;;;;;7.40;4.30;;;4.90;99.90;;;;;;5022494;28;20167;-91
2023/01/28 13:05:57;;;;;;;6.07;4.18;;;4.80;99.90;;;;;;5022345;28;20029;-91
2023/01/28 13:08:25;;;;;;;8.27;4.13;;;4.70;99.90;;;;;;5022356;28;20022;-91
2023/01/28 13:10:53;;;;;;;7.30;3.85;;;4.70;99.90;;;;;;5023109;28;20034;-91
2023/01/28 13:13:40;;;;;;;9.18;5.28;;;4.60;99.90;;;;;;5038193;28;20056;-92
2023/01/28 13:16:08;;;;;;;6.20;3.83;;;4.60;99.90;;;;;;5019695;28;20496;-91
2023/01/28 13:18:42;;;;;;;7.25;4.43;;;4.50;99.90;;;;;;5014735;28;20041;-91
2023/01/28 13:21:22;;;;;;;6.10;4.28;;;4.50;99.90;;;;;;5003877;28;20022;-90
2023/01/28 13:23:49;;;;;;;9.20;5.93;;;4.60;99.90;;;;;;5050704;28;20033;-92
2023/01/28 13:26:18;;;;;;;7.85;4.57;;;4.70;99.90;;;;;;5030089;28;20017;-93
2023/01/28 13:28:44;;;;;;;7.07;4.43;;;4.70;99.90;;;;;;5024120;28;20052;-93
2023/01/28 13:31:16;;;;;;;8.13;4.70;;;4.80;99.90;;;;;;5023524;28;20033;-92
2023/01/28 13:33:45;;;;;;;6.05;4.25;;;4.90;99.90;;;;;;5023434;28;20041;-93
2023/01/28 13:36:20;;;;;;;7.28;4.25;;;4.90;99.90;;;;;;5019606;28;20059;-92
2023/01/28 13:38:45;;;;;;;7.57;5.00;;;4.90;99.90;;;;;;5019537;28;20056;-93
2023/01/28 13:41:11;;;;;;;12.40;4.68;;;4.90;99.90;;;;;;5019828;28;20029;-91